Date,TemperatureHighF,TemperatureAvgF,TemperatureLowF,DewpointHighF,DewpointAvgF,DewpointLowF,HumidityHigh,HumidityAvg,HumidityLow,PressureMaxIn,PressureMinIn,WindSpeedMaxMPH,WindSpeedAvgMPH,GustSpeedMaxMPH,PrecipitationSumIn
2012-12-1,78,62,51,38,34,28,59,37,19,30.13,30.02,7,2,14,0.00
2012-12-2,78,62,49,37,33,31,50,35,21,30.14,30.01,7,1,18,0.00
2012-12-3,75,62,53,36,28,21,51,30,13,30.10,29.98,10,2,22,0.00
2012-12-4,63,55,42,34,29,22,65,38,25,30.29,30.08,4,1,13,0.00
2012-12-5,69,53,39,35,31,28,73,47,25,30.29,30.01,6,1,19,0.00
2012-12-6,77,59,49,32,25,-100,51,30,14,30.01,29.84,8,1,20,0.00
2012-12-7,73,58,48,27,22,19,39,26,14,29.92,29.80,3,0,14,0.00
2012-12-8,70,58,47,28,22,17,37,26,16,29.95,29.83,10,2,22,0.00
2012-12-9,68,56,42,33,25,19,60,32,21,30.00,29.81,11,2,27,0.00
2012-12-10,53,36,22,32,14,7,75,45,22,30.06,29.88,11,2,21,0.00
2012-12-11,57,40,26,9,7,4,41,27,12,30.08,29.91,8,1,20,0.00
2012-12-12,62,45,29,20,12,4,44,28,16,30.12,30.00,7,1,18,0.00
2012-12-13,66,51,40,27,21,16,40,31,20,30.09,29.96,6,0,17,0.00
2012-12-14,66,55,44,44,35,27,61,48,26,29.99,29.73,19,6,36,0.00
2012-12-15,63,49,41,30,22,12,60,37,16,29.97,29.85,13,1,28,0.00
2012-12-16,58,49,42,30,25,15,57,40,26,29.96,29.80,19,8,33,0.00
2012-12-17,61,47,33,30,23,15,73,43,18,30.02,29.89,18,9,33,0.00
2012-12-18,74,59,46,16,13,8,27,18,10,29.94,29.76,18,3,32,0.00
2012-12-19,68,57,39,29,11,-2,44,18,9,30.10,29.68,18,9,47,0.00
2012-12-20,50,37,25,8,4,-2,45,26,14,30.37,30.10,9,0,16,0.00
2012-12-21,57,44,31,3,-2,-8,26,15,8,30.34,30.13,8,1,17,0.00
2012-12-22,65,52,42,22,9,-4,28,18,13,30.17,30.00,5,0,13,0.00
2012-12-23,65,54,45,36,28,18,52,37,25,30.09,29.97,8,1,19,0.00
2012-12-24,70,53,42,32,22,7,51,33,9,30.02,29.75,15,1,22,0.00
2012-12-25,52,40,25,24,17,9,52,40,27,30.05,29.83,20,6,0,0.00
2012-12-26,52,35,18,18,13,8,65,42,25,30.07,29.81,3,0,0,0.00
2012-12-27,64,50,40,17,14,8,36,25,13,29.82,29.64,4,1,0,0.00
2012-12-28,50,42,32,23,14,8,61,34,18,30.08,29.75,15,4,0,0.00
2012-12-29,49,35,28,13,11,8,48,38,21,30.22,30.07,0,0,6,0.00
2012-12-30,51,43,31,36,27,14,78,53,38,30.11,29.85,8,2,20,0.00
2012-12-31,58,47,35,34,28,22,72,52,28,30.01,29.83,7,2,16,0.00